Kenilworth, NJ

11:14 PM EST on December 17, 2014 (GMT -0500)
Newark International | Change Station
CLOSE
Current Station
Airport
Location: Newark,
Elevation: 30 ft
Nearby Weather Stations

Elev 30 ft 40.68 °N, 74.17 °W | Updated 23 minutes ago

Mostly Cloudy
Mostly Cloudy
42 °F
Feels Like 34 °F
N
16
Wind Variable Wind from West
Gusts 23 mph

Today
High -- | Low -- °F
--% Chance of Precip.
Yesterday
High -- | Low -- °F
Precip. -- in
7:15 AM 4:31 PM
Waning Crescent, 17% visible
Pressure 29.91 in
Visibility 10.0 miles
Clouds Scattered Clouds 5000 ft
Mostly Cloudy 6000 ft
Windchill 34 °F
Dew Point 27 °F
Humidity 55%
Rainfall 0.01 in
Snow Depth Not available.
UV 0 out of 12
Pollen .10 out of 12
Air Quality Not available.
Flu Activity Not available.
METAR KEWR 180351Z 27014G20KT 10SM SCT050 BKN060 06/M03 A2991 RMK AO2 SLP126 T00561028 PNO $

More Conditions Fewer Conditions

Pressure 29.91 in
Visibility 10.0 miles
Clouds Scattered Clouds 5000 ft
Mostly Cloudy 6000 ft
Windchill 34 °F
Dew Point 27 °F
Humidity 55%
Rainfall 0.01 in
Snow Depth Not available.
UV 0 out of 12
Pollen .10 out of 12
Air Quality Not available.
Flu Activity Not available.
METAR KEWR 180351Z 27014G20KT 10SM SCT050 BKN060 06/M03 A2991 RMK AO2 SLP126 T00561028 PNO $

More Conditions Fewer Conditions

10-Day Weather Forecast

Almanac

Astronomy

Dec. 17, 2014 Rise Set
Actual Time
Civil Twilight
Nautical Twilight
Astronomical Twilight
Moon
Length of Visible Light
Length of Day
Tomorrow will be .
, % of the Moon is Illuminated

Today's Extremes

State Highs State Lows

Community

WunderPhotos

Upload Photos

1,778,880 photos uploaded!

WunderBlogs® & News

Nearby

Air Quality

  Air Quality AQ Index Pollutant
Not available.

Snow Depth

Station Depth Elevation

Earthquake Activity

City Distance Mag. Time & Date
Minimum magnitude displayed is 2.5.

Coastal Water Temperatures

Place Temperature

Nearby Weather Stations